createdAt,value
2022-12-03T00:03:13.622Z,6.30
2022-12-03T00:08:16.045Z,6.30
2022-12-03T00:13:18.250Z,6.40
2022-12-03T00:18:20.404Z,6.40
2022-12-03T00:23:22.583Z,6.30
2022-12-03T00:28:24.751Z,6.30
2022-12-03T00:33:27.644Z,6.30
2022-12-03T00:38:29.770Z,6.40
2022-12-03T00:43:31.935Z,6.40
2022-12-03T00:48:34.245Z,6.20
2022-12-03T00:53:36.436Z,6.20
2022-12-03T00:58:38.601Z,6.10
2022-12-03T01:03:40.988Z,6.00
2022-12-03T01:08:43.146Z,5.90
2022-12-03T01:13:45.799Z,5.90
2022-12-03T01:18:48.039Z,6.20
2022-12-03T01:23:50.286Z,6.30
2022-12-03T01:28:53.221Z,6.20
2022-12-03T01:33:55.717Z,6.30
2022-12-03T01:38:57.875Z,6.30
2022-12-03T01:44:00.826Z,6.30
2022-12-03T01:49:03.406Z,6.20
2022-12-03T01:54:05.940Z,6.20
2022-12-03T01:59:13.273Z,6.30
2022-12-03T02:04:17.412Z,6.40
2022-12-03T02:09:19.561Z,6.30
2022-12-03T02:14:22.371Z,6.20
2022-12-03T02:19:27.265Z,6.20
2022-12-03T02:24:41.442Z,6.20
2022-12-03T02:29:43.535Z,6.10
2022-12-03T02:34:46.359Z,6.10
2022-12-03T02:39:53.132Z,6.00
2022-12-03T02:44:59.344Z,5.90
2022-12-03T02:50:04.873Z,5.90
2022-12-03T02:55:07.965Z,6.00
2022-12-03T03:00:11.156Z,6.00
2022-12-03T03:05:15.476Z,6.00
2022-12-03T03:10:21.718Z,6.00
2022-12-03T03:15:25.328Z,5.90
2022-12-03T03:20:27.507Z,5.90
2022-12-03T03:25:29.701Z,5.90
2022-12-03T03:30:32.707Z,5.90
2022-12-03T03:35:36.113Z,5.80
2022-12-03T03:40:39.287Z,5.70
2022-12-03T03:45:42.945Z,5.60
2022-12-03T03:50:45.858Z,5.50
2022-12-03T03:55:48.245Z,5.50
2022-12-03T04:00:52.180Z,5.40
2022-12-03T04:05:54.703Z,5.40
2022-12-03T04:11:15.463Z,5.50
2022-12-03T04:16:17.724Z,5.50
2022-12-03T04:21:40.561Z,5.50
2022-12-03T04:27:01.276Z,5.60
2022-12-03T04:32:22.585Z,5.60
2022-12-03T04:37:24.711Z,5.50
2022-12-03T04:42:26.930Z,5.50
2022-12-03T04:47:29.123Z,5.40
2022-12-03T04:52:31.311Z,5.30
2022-12-03T04:57:34.357Z,5.20
2022-12-03T05:02:36.624Z,5.20
2022-12-03T05:07:38.995Z,5.20
2022-12-03T05:12:41.361Z,5.30
2022-12-03T05:17:43.569Z,5.20
2022-12-03T05:22:45.788Z,5.20
2022-12-03T05:27:47.920Z,5.20
2022-12-03T05:32:50.141Z,5.10
2022-12-03T05:37:52.262Z,5.10
2022-12-03T05:42:54.508Z,5.10
2022-12-03T05:47:58.482Z,5.10
2022-12-03T05:53:01.308Z,5.00
2022-12-03T05:58:03.884Z,5.00
2022-12-03T06:03:07.157Z,5.00
2022-12-03T06:08:09.519Z,4.90
2022-12-03T06:13:11.974Z,4.80
2022-12-03T06:18:14.406Z,4.90
2022-12-03T06:23:16.636Z,4.90
2022-12-03T06:28:18.821Z,4.90
2022-12-03T06:33:20.953Z,4.90
2022-12-03T06:38:23.200Z,4.90
2022-12-03T06:43:25.573Z,4.80
2022-12-03T06:48:27.720Z,4.80
2022-12-03T06:53:29.997Z,4.70
2022-12-03T06:58:32.171Z,4.70
2022-12-03T07:03:34.283Z,4.70
2022-12-03T07:08:36.441Z,4.80
2022-12-03T07:13:38.570Z,4.80
2022-12-03T07:18:40.833Z,4.70
2022-12-03T07:23:42.949Z,4.60
2022-12-03T07:28:45.127Z,4.70
2022-12-03T07:33:47.270Z,4.70
2022-12-03T07:38:49.521Z,4.80
2022-12-03T07:43:51.660Z,4.80
2022-12-03T07:48:54.026Z,4.80
2022-12-03T07:53:56.210Z,4.70
2022-12-03T07:58:58.529Z,4.80
2022-12-03T08:04:00.712Z,4.70
2022-12-03T08:09:02.897Z,4.80
2022-12-03T08:14:15.597Z,4.80
2022-12-03T08:19:18.387Z,4.90
2022-12-03T08:24:21.916Z,5.00
2022-12-03T08:29:25.049Z,5.00
2022-12-03T08:34:31.700Z,5.00
2022-12-03T08:39:37.924Z,5.00
2022-12-03T08:44:43.071Z,5.00
2022-12-03T08:50:07.842Z,5.10
2022-12-03T08:55:34.178Z,5.10
2022-12-03T09:00:36.963Z,5.20
2022-12-03T09:05:39.170Z,5.20
2022-12-03T09:10:41.532Z,5.20
2022-12-03T09:15:43.685Z,5.30
2022-12-03T09:20:45.932Z,5.40
2022-12-03T09:25:48.098Z,5.50
2022-12-03T09:30:50.373Z,5.50
2022-12-03T09:35:52.593Z,5.60
2022-12-03T09:40:54.773Z,5.80
2022-12-03T09:45:57.112Z,5.80
2022-12-03T09:50:59.447Z,5.90
2022-12-03T09:56:01.852Z,6.00
2022-12-03T10:01:13.927Z,6.00
2022-12-03T10:06:22.437Z,6.10
2022-12-03T10:11:26.228Z,6.10
2022-12-03T10:16:30.618Z,6.10
2022-12-03T10:21:37.990Z,6.10
2022-12-03T10:26:40.848Z,6.00
2022-12-03T10:31:43.018Z,6.00
2022-12-03T10:36:45.301Z,5.90
2022-12-03T10:41:47.806Z,5.90
2022-12-03T10:47:13.457Z,5.90
2022-12-03T10:52:25.724Z,5.90
2022-12-03T10:57:28.401Z,5.90
2022-12-03T11:02:30.561Z,5.90
2022-12-03T11:07:32.904Z,5.80
2022-12-03T11:12:35.742Z,5.80
2022-12-03T11:17:49.954Z,5.80
2022-12-03T11:22:56.701Z,5.80
2022-12-03T11:28:13.611Z,5.80
2022-12-03T11:33:32.707Z,5.80
2022-12-03T11:38:37.890Z,5.90
2022-12-03T11:43:52.390Z,6.00
2022-12-03T11:48:56.616Z,6.00
2022-12-03T11:54:00.648Z,6.00
2022-12-03T11:59:04.744Z,6.00
2022-12-03T12:04:08.867Z,5.90
2022-12-03T12:09:11.387Z,5.90
2022-12-03T12:14:13.913Z,5.90
2022-12-03T12:19:34.772Z,5.90
2022-12-03T12:24:46.411Z,5.90
2022-12-03T12:30:05.989Z,5.90
2022-12-03T12:35:19.801Z,5.80
2022-12-03T12:40:26.892Z,5.80
2022-12-03T12:45:34.039Z,5.80
2022-12-03T12:50:38.210Z,5.80
2022-12-03T12:55:40.758Z,5.80
2022-12-03T13:00:50.585Z,5.70
2022-12-03T13:05:54.581Z,5.70
2022-12-03T13:10:59.697Z,5.70
2022-12-03T13:16:02.059Z,5.60
2022-12-03T13:21:31.395Z,5.60
2022-12-03T13:26:40.168Z,5.60
2022-12-03T13:31:54.416Z,5.60
2022-12-03T13:36:58.521Z,5.50
2022-12-03T13:42:34.409Z,5.60
2022-12-03T13:47:38.106Z,5.50
2022-12-03T13:52:40.592Z,5.60
2022-12-03T13:57:42.816Z,5.60
2022-12-03T14:02:45.094Z,5.70
2022-12-03T14:07:47.413Z,5.70
2022-12-03T14:12:49.714Z,5.80
2022-12-03T14:17:52.195Z,5.80
2022-12-03T14:22:59.334Z,5.80
2022-12-03T14:28:01.951Z,5.70
2022-12-03T14:33:05.351Z,5.80
2022-12-03T14:38:07.469Z,5.70
2022-12-03T14:43:09.696Z,5.60
2022-12-03T14:48:11.922Z,5.60
2022-12-03T14:53:14.134Z,5.60
2022-12-03T14:58:16.291Z,5.50
2022-12-03T15:03:19.514Z,5.50
2022-12-03T15:08:21.956Z,5.60
2022-12-03T15:13:24.214Z,5.50
2022-12-03T15:18:26.546Z,5.50
2022-12-03T15:23:28.823Z,5.50
2022-12-03T15:28:31.008Z,5.50
2022-12-03T15:33:33.263Z,5.50
2022-12-03T15:38:35.438Z,5.50
2022-12-03T15:43:37.630Z,5.50
2022-12-03T15:48:39.833Z,5.40
2022-12-03T15:53:42.280Z,5.40
2022-12-03T15:58:44.804Z,5.30
2022-12-03T16:03:47.515Z,5.30
2022-12-03T16:08:49.691Z,5.30
2022-12-03T16:13:51.834Z,5.30
2022-12-03T16:18:54.625Z,5.20
2022-12-03T16:23:56.938Z,5.20
2022-12-03T16:28:59.197Z,5.20
2022-12-03T16:34:01.362Z,5.20
2022-12-03T16:39:04.291Z,5.20
2022-12-03T16:44:06.635Z,5.10
2022-12-03T16:49:09.296Z,5.20
2022-12-03T16:54:11.820Z,5.10
2022-12-03T16:59:13.997Z,5.20
2022-12-03T17:04:31.310Z,5.10
2022-12-03T17:09:33.577Z,5.10
2022-12-03T17:14:35.846Z,5.10
2022-12-03T17:19:38.199Z,5.10
2022-12-03T17:24:41.011Z,5.10
2022-12-03T17:29:43.266Z,5.10
2022-12-03T17:34:45.423Z,5.10
2022-12-03T17:39:47.717Z,5.10
2022-12-03T17:44:49.921Z,5.10
2022-12-03T17:49:52.450Z,5.20
2022-12-03T17:55:10.952Z,5.10
2022-12-03T18:00:14.504Z,5.10
2022-12-03T18:05:17.244Z,5.10
2022-12-03T18:10:19.435Z,5.10
2022-12-03T18:15:21.604Z,5.10
2022-12-03T18:20:23.918Z,5.10
2022-12-03T18:25:26.800Z,5.10
2022-12-03T18:30:28.960Z,5.10
2022-12-03T18:35:31.408Z,5.00
2022-12-03T18:40:33.679Z,5.00
2022-12-03T18:45:35.818Z,4.90
2022-12-03T18:50:38.073Z,5.00
2022-12-03T18:55:41.611Z,5.00
2022-12-03T19:00:43.837Z,5.00
2022-12-03T19:05:46.108Z,5.00
2022-12-03T19:10:59.939Z,4.90
2022-12-03T19:16:03.729Z,4.90
2022-12-03T19:21:08.098Z,4.90
2022-12-03T19:26:12.457Z,4.90
2022-12-03T19:31:16.788Z,4.90
2022-12-03T19:36:27.691Z,4.90
2022-12-03T19:41:30.814Z,4.90
2022-12-03T19:46:33.066Z,4.90
2022-12-03T19:51:36.028Z,4.90
2022-12-03T19:56:38.856Z,4.80
2022-12-03T20:01:43.345Z,4.90
2022-12-03T20:06:45.819Z,4.90
2022-12-03T20:11:50.813Z,4.80
2022-12-03T20:16:53.125Z,4.80
2022-12-03T20:22:02.156Z,4.80
2022-12-03T20:27:05.139Z,4.80
2022-12-03T20:32:07.624Z,4.80
2022-12-03T20:37:09.896Z,4.80
2022-12-03T20:42:12.283Z,4.80
2022-12-03T20:47:15.460Z,4.80
2022-12-03T20:52:17.634Z,4.80
2022-12-03T20:57:19.811Z,4.80
2022-12-03T21:02:22.122Z,4.80
2022-12-03T21:07:24.434Z,4.80
2022-12-03T21:12:27.430Z,4.80
2022-12-03T21:17:29.775Z,4.80
2022-12-03T21:22:32.093Z,4.80
2022-12-03T21:27:34.285Z,4.80
2022-12-03T21:32:36.474Z,4.70
2022-12-03T21:37:38.617Z,5.00
2022-12-03T21:42:41.018Z,4.80
2022-12-03T21:47:47.195Z,4.80
2022-12-03T21:52:51.339Z,4.80
2022-12-03T21:57:53.573Z,4.80
2022-12-03T22:02:55.875Z,4.80
2022-12-03T22:07:58.270Z,4.80
2022-12-03T22:13:00.575Z,4.80
2022-12-03T22:18:02.844Z,4.80
2022-12-03T22:23:05.031Z,4.80
2022-12-03T22:28:07.215Z,4.80
2022-12-03T22:33:09.427Z,4.80
2022-12-03T22:38:11.644Z,4.80
2022-12-03T22:43:13.943Z,4.80
2022-12-03T22:48:16.221Z,4.80
2022-12-03T22:53:19.171Z,4.90
2022-12-03T22:58:21.627Z,4.80
2022-12-03T23:03:23.953Z,4.90
2022-12-03T23:08:26.161Z,4.90
2022-12-03T23:13:28.912Z,4.80
2022-12-03T23:18:31.318Z,4.90
2022-12-03T23:23:33.569Z,4.90
2022-12-03T23:28:38.136Z,4.90
2022-12-03T23:33:40.380Z,4.90
2022-12-03T23:38:42.749Z,4.90
2022-12-03T23:43:45.076Z,4.90
2022-12-03T23:48:47.388Z,4.90
2022-12-03T23:53:50.280Z,4.90
2022-12-03T23:58:52.534Z,4.90
